Mistley, United Kingdom
Current Conditions -  °F | °C
As of 2:50 AM on Saturday 22 Nov 2014 (Local Time) from EGUW Reporting Station
Rain Showers Rain Showers  
Wind Chill: 50°   Ceiling: 300
Heat Index: 50°   Visibility: 2.8mi
Dew Point: 48°   Wind: 10mph
Humidity: 94%   Direction: 140°SE
Pressure: 29.88"   Gusts: NA
Location:  51.94°N, 1.08°E
Report Text: EGUW 220250Z AUTO 14009KT 4600 -SHRA OVC003/// 10/09 Q1012
Loading
Personal Weather Stations






























Interactive Weather Map New forecast layout! Learn more

10-Day Weather Forecast

Advertisements
Track Severe Weather on mobile